Time;durP1;ratioP1;P1;durP2;ratioP2;P2;SDS_P1;SDS_P2;PMS_P1;PMS_P2;Temp;Humidity;BMP_temperature;BMP_pressure;BME280_temperature;BME280_humidity;BME280_pressure;Samples;Min_cycle;Max_cycle;Signal;HPM_P1;HPM_P2
2023/06/05 00:01:02;;;;;;;30.58;14.95;;;;;;;17.88;69.62;95680.94;5053344;28;20069;-80
2023/06/05 00:03:29;;;;;;;21.52;13.75;;;;;;;17.94;69.81;95691.25;5034784;28;20099;-80
2023/06/05 00:05:55;;;;;;;19.48;13.20;;;;;;;17.82;69.87;95672.25;5035467;28;20029;-81
2023/06/05 00:08:20;;;;;;;24.05;14.63;;;;;;;17.67;69.70;95653.84;5053347;28;20110;-80
2023/06/05 00:10:46;;;;;;;17.58;13.00;;;;;;;17.91;69.67;95691.09;5035517;28;20285;-80
2023/06/05 00:13:11;;;;;;;19.77;12.25;;;;;;;17.57;69.49;95638.75;5035081;28;20040;-80
2023/06/05 00:15:37;;;;;;;21.30;12.98;;;;;;;17.46;69.80;95632.09;5038591;28;20041;-80
2023/06/05 00:18:08;;;;;;;16.42;11.07;;;;;;;17.73;69.70;95679.44;5050130;28;20399;-80
2023/06/05 00:20:33;;;;;;;18.10;13.05;;;;;;;17.57;69.83;95648.69;5053123;28;20039;-80
2023/06/05 00:22:59;;;;;;;18.42;11.90;;;;;;;17.81;69.80;95697.50;5034800;28;20491;-80
2023/06/05 00:25:24;;;;;;;18.20;11.90;;;;;;;17.81;69.73;95692.13;5034454;28;20120;-80
2023/06/05 00:27:50;;;;;;;19.25;11.30;;;;;;;17.68;69.85;95672.34;5035247;28;20037;-80
2023/06/05 00:30:15;;;;;;;22.48;12.15;;;;;;;17.70;69.86;95678.16;5034732;28;20094;-80
2023/06/05 00:32:41;;;;;;;20.73;12.32;;;;;;;17.58;69.73;95661.00;5034842;28;20124;-80
2023/06/05 00:35:07;;;;;;;16.33;11.50;;;;;;;17.77;69.71;95688.47;5034565;28;20073;-81
2023/06/05 00:37:37;;;;;;;20.48;11.68;;;;;;;17.64;69.72;95682.06;5034666;28;20032;-80
2023/06/05 00:40:04;;;;;;;17.70;11.35;;;;;;;17.72;69.98;95696.63;5024249;28;20037;-80
2023/06/05 00:42:30;;;;;;;15.55;10.70;;;;;;;17.53;69.91;95666.50;5026781;28;20071;-80
2023/06/05 00:44:55;;;;;;;16.88;11.30;;;;;;;17.31;69.92;95624.41;5052301;28;20068;-80
2023/06/05 00:47:21;;;;;;;17.17;11.80;;;;;;;17.60;69.87;95681.06;5052478;28;20102;-80
2023/06/05 00:49:47;;;;;;;18.23;11.88;;;;;;;17.36;70.04;95638.47;5052586;28;20472;-80
2023/06/05 00:52:14;;;;;;;17.23;11.88;;;;;;;17.40;70.05;95635.97;5034239;28;20496;-80
2023/06/05 00:54:41;;;;;;;18.50;10.88;;;;;;;17.27;70.08;95628.78;5033958;28;20086;-80
2023/06/05 00:57:08;;;;;;;15.10;11.07;;;;;;;17.48;70.12;95664.72;5034130;28;20052;-80
2023/06/05 00:59:35;;;;;;;19.25;12.93;;;;;;;17.41;70.09;95644.81;5034198;28;20033;-80
2023/06/05 01:02:02;;;;;;;17.52;11.35;;;;;;;17.36;70.08;95649.19;5051917;28;20063;-80
2023/06/05 01:04:32;;;;;;;18.42;12.00;;;;;;;17.53;70.15;95666.50;5052554;28;20029;-80
2023/06/05 01:06:59;;;;;;;15.73;11.70;;;;;;;17.42;70.32;95655.22;5051962;28;20037;-80
2023/06/05 01:09:25;;;;;;;14.20;11.50;;;;;;;17.54;70.26;95670.78;5052045;28;20355;-80
2023/06/05 01:12:10;;;;;;;14.70;11.38;;;;;;;17.55;70.07;95675.03;5052332;28;20119;-80
2023/06/05 01:14:40;;;;;;;14.52;11.55;;;;;;;17.36;70.10;95646.53;5033809;28;20041;-80
2023/06/05 01:17:08;;;;;;;21.45;11.55;;;;;;;17.51;70.13;95660.66;5033590;28;20040;-80
2023/06/05 01:19:33;;;;;;;15.32;10.70;;;;;;;17.47;69.96;95649.72;5033979;28;20032;-80
2023/06/05 01:22:00;;;;;;;20.15;11.77;;;;;;;17.56;69.86;95663.19;5051864;28;20563;-80
2023/06/05 01:24:27;;;;;;;15.88;10.50;;;;;;;17.42;69.86;95644.50;5034082;28;20029;-80
2023/06/05 01:27:02;;;;;;;16.40;10.57;;;;;;;17.51;69.81;95660.66;5033718;28;20037;-80
2023/06/05 01:29:52;;;;;;;23.33;11.73;;;;;;;17.44;69.96;95655.72;5029439;28;20044;-80
2023/06/05 01:32:36;;;;;;;13.43;10.40;;;;;;;17.19;70.06;95622.25;5032323;28;20132;-80
2023/06/05 01:35:06;;;;;;;13.10;10.13;;;;;;;17.41;70.17;95652.84;5031954;28;20045;-80
2023/06/05 01:37:36;;;;;;;15.90;10.45;;;;;;;17.15;70.28;95628.53;5028125;28;20076;-80
2023/06/05 01:40:06;;;;;;;14.40;10.50;;;;;;;17.31;70.27;95643.97;5033835;28;20530;-80
2023/06/05 01:42:32;;;;;;;18.88;10.95;;;;;;;17.29;70.26;95645.38;5051959;28;20037;-80
2023/06/05 01:44:58;;;;;;;15.73;11.23;;;;;;;17.27;70.32;95636.81;5033447;28;20040;-80
2023/06/05 01:47:24;;;;;;;17.00;10.05;;;;;;;17.25;70.34;95639.00;5033606;28;20080;-80
2023/06/05 01:49:50;;;;;;;21.92;10.98;;;;;;;17.17;70.20;95631.69;5051734;28;20051;-80
2023/06/05 01:52:15;;;;;;;22.30;10.55;;;;;;;17.20;70.22;95641.81;5028641;28;20033;-80
2023/06/05 01:54:42;;;;;;;14.45;10.32;;;;;;;17.10;70.25;95625.97;5021368;28;20502;-77
2023/06/05 01:57:09;;;;;;;19.80;10.85;;;;;;;17.06;70.33;95630.34;5052570;28;20435;-77
2023/06/05 01:59:35;;;;;;;17.60;11.02;;;;;;;17.12;70.27;95642.53;5034806;28;20064;-77
2023/06/05 02:02:00;;;;;;;15.07;10.35;;;;;;;16.95;70.24;95625.22;5008149;28;20046;-77
2023/06/05 02:04:27;;;;;;;16.75;11.60;;;;;;;16.76;70.53;95603.16;5028201;28;20091;-77
2023/06/05 02:06:53;;;;;;;21.40;11.55;;;;;;;16.71;70.50;95581.03;5020956;28;20401;-77
2023/06/05 02:09:18;;;;;;;22.77;12.35;;;;;;;16.78;70.32;95592.91;5048332;28;20040;-77
2023/06/05 02:11:45;;;;;;;26.58;12.15;;;;;;;17.09;70.46;95649.28;5053031;28;20033;-78
2023/06/05 02:14:15;;;;;;;16.27;11.48;;;;;;;17.11;70.44;95643.63;5052756;28;20037;-77
2023/06/05 02:16:41;;;;;;;21.90;11.52;;;;;;;17.13;70.42;95646.81;5018438;28;20585;-77
2023/06/05 02:19:06;;;;;;;23.65;11.80;;;;;;;16.91;70.50;95610.84;5051856;28;20053;-78
2023/06/05 02:21:33;;;;;;;16.05;10.50;;;;;;;17.15;70.27;95642.75;5052741;28;20024;-77
2023/06/05 02:24:02;;;;;;;22.67;10.30;;;;;;;17.03;70.20;95639.00;5034136;28;20035;-77
2023/06/05 02:26:28;;;;;;;16.42;10.63;;;;;;;17.14;70.10;95651.06;5034167;28;20377;-77
2023/06/05 02:28:55;;;;;;;19.70;10.13;;;;;;;16.95;70.17;95619.06;5051832;28;20040;-78
2023/06/05 02:31:24;;;;;;;15.93;10.63;;;;;;;16.92;69.83;95615.13;5052289;28;20482;-77
2023/06/05 02:33:53;;;;;;;17.52;10.35;;;;;;;16.88;69.83;95614.13;5052428;28;20078;-77
2023/06/05 02:36:19;;;;;;;16.77;11.57;;;;;;;16.90;69.80;95627.22;5033839;28;20112;-77
2023/06/05 02:38:45;;;;;;;23.35;11.52;;;;;;;17.00;69.88;95643.09;5052329;28;20052;-78
2023/06/05 02:41:11;;;;;;;14.00;9.50;;;;;;;16.68;70.00;95600.41;5034560;28;20032;-78
2023/06/05 02:43:36;;;;;;;23.83;11.52;;;;;;;16.98;70.02;95637.22;5052574;28;20029;-78
2023/06/05 02:46:02;;;;;;;24.63;11.05;;;;;;;16.92;70.18;95633.09;5034337;28;20033;-79
2023/06/05 02:48:27;;;;;;;20.05;10.40;;;;;;;16.98;69.97;95640.69;5051976;28;20045;-78
2023/06/05 02:50:52;;;;;;;19.65;11.50;;;;;;;16.97;69.98;95647.16;5052765;28;20033;-78
2023/06/05 02:53:18;;;;;;;22.60;11.40;;;;;;;16.83;70.15;95641.03;5034406;28;20025;-78
2023/06/05 02:55:43;;;;;;;20.83;10.98;;;;;;;16.79;70.23;95631.22;5052523;28;20025;-78
2023/06/05 02:58:12;;;;;;;24.60;11.90;;;;;;;16.63;70.45;95612.00;5029331;28;20033;-78
2023/06/05 03:00:38;;;;;;;20.92;10.75;;;;;;;16.71;70.40;95635.41;5021007;28;20252;-78
2023/06/05 03:03:06;;;;;;;20.13;11.00;;;;;;;16.72;70.45;95631.63;5034170;28;20094;-78
2023/06/05 03:05:32;;;;;;;26.50;10.63;;;;;;;16.40;70.83;95583.59;5041868;28;20071;-78
2023/06/05 03:07:57;;;;;;;22.73;10.82;;;;;;;16.70;70.98;95641.06;5044478;28;20472;-78
2023/06/05 03:10:23;;;;;;;20.48;11.48;;;;;;;16.60;70.75;95631.34;5019819;28;20033;-78
2023/06/05 03:12:49;;;;;;;24.83;12.43;;;;;;;16.28;70.82;95589.44;5014560;28;20033;-78
2023/06/05 03:15:15;;;;;;;23.83;11.52;;;;;;;16.44;70.74;95601.41;5048526;28;20033;-78
2023/06/05 03:17:41;;;;;;;21.15;11.18;;;;;;;16.67;70.88;95638.97;5034102;28;20029;-78
2023/06/05 03:20:09;;;;;;;20.10;11.20;;;;;;;16.62;71.10;95623.03;5033851;28;20059;-78
2023/06/05 03:22:34;;;;;;;21.50;11.75;;;;;;;16.83;70.79;95659.78;5015577;28;20501;-79
2023/06/05 03:25:00;;;;;;;24.60;11.82;;;;;;;16.65;70.80;95630.44;5032307;28;20029;-78
2023/06/05 03:27:25;;;;;;;19.00;10.98;;;;;;;16.80;71.46;95660.38;5034398;28;20033;-78
2023/06/05 03:29:50;;;;;;;20.33;12.65;;;;;;;16.48;71.17;95623.00;5033696;28;20086;-78
2023/06/05 03:32:16;;;;;;;19.38;11.30;;;;;;;16.29;71.37;95588.34;5033598;28;20052;-78
2023/06/05 03:34:42;;;;;;;22.38;12.30;;;;;;;16.52;71.45;95643.53;5033736;28;20400;-78
2023/06/05 03:37:08;;;;;;;19.60;13.18;;;;;;;16.47;71.82;95626.78;5033810;28;20033;-78
2023/06/05 03:39:33;;;;;;;21.42;13.32;;;;;;;16.78;71.77;95675.19;5033563;28;20025;-78
2023/06/05 03:42:00;;;;;;;20.15;13.32;;;;;;;16.71;72.22;95678.25;5050908;28;20036;-78
2023/06/05 03:44:25;;;;;;;20.60;13.15;;;;;;;16.49;71.94;95643.34;5033902;28;20056;-78
2023/06/05 03:46:51;;;;;;;28.63;13.25;;;;;;;16.72;72.42;95681.72;5033468;28;20037;-78
2023/06/05 03:49:18;;;;;;;30.10;13.40;;;;;;;16.56;72.71;95665.94;5033790;28;20112;-78
2023/06/05 03:51:44;;;;;;;23.85;12.95;;;;;;;16.28;74.23;95679.63;5033986;28;20064;-78
2023/06/05 03:54:12;;;;;;;24.55;14.40;;;;;;;16.41;73.84;95678.84;5034711;28;20040;-78
2023/06/05 03:56:43;;;;;;;28.88;12.93;;;;;;;16.44;73.52;95672.88;5034481;28;20090;-78
2023/06/05 03:59:19;;;;;;;22.27;12.77;;;;;;;16.32;73.94;95646.63;5033226;28;20043;-78
2023/06/05 04:01:45;;;;;;;22.98;12.95;;;;;;;16.46;73.65;95663.47;5048745;28;20407;-78
2023/06/05 04:04:10;;;;;;;30.38;14.38;;;;;;;16.45;73.29;95642.34;5021750;28;20116;-78
2023/06/05 04:06:36;;;;;;;24.60;12.68;;;;;;;16.58;73.60;95661.09;5018941;28;20034;-78
2023/06/05 04:09:10;;;;;;;21.17;12.27;;;;;;;16.75;73.43;95681.13;5023200;28;20037;-78
2023/06/05 04:11:35;;;;;;;23.85;12.82;;;;;;;16.56;73.32;95638.38;5022907;28;20034;-78
2023/06/05 04:14:01;;;;;;;25.13;13.48;;;;;;;16.56;73.45;95644.50;5027219;28;20068;-78
2023/06/05 04:16:26;;;;;;;22.45;13.52;;;;;;;16.69;72.98;95645.63;5026055;28;20041;-79
2023/06/05 04:18:52;;;;;;;27.83;12.88;;;;;;;16.66;72.78;95627.47;5025485;28;20335;-78
2023/06/05 04:21:17;;;;;;;26.85;12.90;;;;;;;16.90;72.84;95660.16;5027204;28;20041;-78
2023/06/05 04:23:43;;;;;;;25.98;14.60;;;;;;;16.80;72.78;95644.31;5028967;28;20503;-79
2023/06/05 04:26:08;;;;;;;20.15;13.73;;;;;;;16.81;72.57;95655.81;5029521;28;20040;-78
2023/06/05 04:28:34;;;;;;;21.40;14.65;;;;;;;16.77;73.33;95677.06;5026079;28;20034;-78
2023/06/05 04:31:01;;;;;;;30.92;15.55;;;;;;;16.84;73.61;95676.66;5021645;28;20029;-78
2023/06/05 04:33:27;;;;;;;30.40;14.32;;;;;;;16.97;73.10;95683.88;5028563;28;20041;-79
2023/06/05 04:35:53;;;;;;;25.25;14.38;;;;;;;16.70;73.03;95627.69;5021577;28;20502;-78
2023/06/05 04:38:20;;;;;;;24.92;15.60;;;;;;;16.97;72.96;95671.25;5024727;28;20065;-79
2023/06/05 04:40:50;;;;;;;26.63;14.35;;;;;;;16.62;72.54;95586.34;5025613;28;20038;-79
2023/06/05 04:43:16;;;;;;;24.02;14.25;;;;;;;17.29;72.42;95672.97;5028995;28;20062;-79
2023/06/05 04:45:41;;;;;;;27.30;14.07;;;;;;;17.14;72.37;95643.84;5018859;28;20053;-79
2023/06/05 04:48:08;;;;;;;24.33;14.52;;;;;;;17.30;72.33;95655.78;5019130;28;20170;-79
2023/06/05 04:50:35;;;;;;;30.80;14.82;;;;;;;17.20;72.17;95633.78;5019549;28;20249;-79
2023/06/05 04:53:01;;;;;;;26.50;14.50;;;;;;;17.20;72.03;95620.38;5018886;28;20125;-79
2023/06/05 04:55:27;;;;;;;24.92;14.23;;;;;;;17.42;71.79;95641.03;5023812;28;20124;-79
2023/06/05 04:57:54;;;;;;;28.42;14.55;;;;;;;17.55;71.78;95657.03;5023532;28;20040;-80
2023/06/05 05:00:19;;;;;;;20.70;15.07;;;;;;;17.39;72.11;95641.66;5016040;28;20025;-81
2023/06/05 05:02:45;;;;;;;26.38;14.75;;;;;;;17.43;72.23;95630.00;5029705;28;20111;-81
2023/06/05 05:05:13;;;;;;;25.67;15.10;;;;;;;17.63;72.28;95660.91;5046307;28;20085;-83
2023/06/05 05:07:42;;;;;;;25.08;15.40;;;;;;;17.60;72.63;95659.63;5021009;28;20029;-82
2023/06/05 05:10:09;;;;;;;28.20;15.55;;;;;;;17.53;72.20;95621.72;5034840;28;20135;-84
2023/06/05 05:12:36;;;;;;;29.77;14.70;;;;;;;17.48;72.42;95599.59;5028728;28;20040;-83
2023/06/05 05:15:03;;;;;;;27.60;14.45;;;;;;;18.06;72.38;95672.69;5020845;28;20072;-82
2023/06/05 05:17:31;;;;;;;21.50;14.48;;;;;;;17.97;72.75;95653.06;5046085;28;20037;-82
2023/06/05 05:19:57;;;;;;;28.13;15.23;;;;;;;17.86;73.17;95634.84;5028494;28;20040;-82
2023/06/05 05:22:23;;;;;;;26.23;14.90;;;;;;;18.22;72.70;95681.16;5041309;28;20044;-83
2023/06/05 05:24:48;;;;;;;25.30;14.77;;;;;;;18.09;72.59;95647.13;5025590;28;20136;-82
2023/06/05 05:27:14;;;;;;;32.45;16.73;;;;;;;17.72;72.43;95576.72;5030571;28;20064;-84
2023/06/05 05:29:39;;;;;;;24.77;15.48;;;;;;;18.21;72.27;95635.81;5021049;28;20103;-82
2023/06/05 05:32:05;;;;;;;24.75;15.07;;;;;;;18.27;72.26;95639.94;5022227;28;20072;-81
2023/06/05 05:34:31;;;;;;;27.08;15.60;;;;;;;18.22;72.31;95630.13;5019845;28;20049;-82
2023/06/05 05:36:56;;;;;;;25.17;15.13;;;;;;;18.47;71.95;95658.94;5017831;28;20700;-82
2023/06/05 05:39:22;;;;;;;33.35;15.93;;;;;;;17.85;72.28;95564.28;5039073;28;20046;-81
2023/06/05 05:41:47;;;;;;;29.00;14.77;;;;;;;18.64;71.79;95662.81;5022617;28;20041;-82
2023/06/05 05:44:13;;;;;;;37.95;16.02;;;;;;;18.58;72.37;95656.03;5038850;28;20036;-82
2023/06/05 05:46:38;;;;;;;34.70;17.88;;;;;;;18.56;72.65;95659.00;5019053;28;20086;-82
2023/06/05 05:49:04;;;;;;;37.45;18.25;;;;;;;18.67;73.13;95676.44;5039368;28;20059;-81
2023/06/05 05:51:29;;;;;;;24.80;14.10;;;;;;;18.39;72.53;95599.84;5021774;28;20032;-82
2023/06/05 05:53:55;;;;;;;35.33;16.58;;;;;;;18.88;72.61;95665.88;5035574;28;20045;-83
2023/06/05 05:56:20;;;;;;;50.22;21.70;;;;;;;18.87;72.20;95643.59;5040878;28;20095;-82
2023/06/05 05:58:47;;;;;;;31.95;17.20;;;;;;;18.73;72.30;95620.66;5044538;28;20438;-80
2023/06/05 06:01:13;;;;;;;24.58;15.82;;;;;;;18.60;72.76;95616.22;5022368;28;20051;-80
2023/06/05 06:03:38;;;;;;;23.90;16.45;;;;;;;18.83;72.30;95653.41;5021407;28;20049;-79
2023/06/05 06:06:07;;;;;;;32.67;18.55;;;;;;;18.66;72.18;95602.31;5022040;28;20056;-80
2023/06/05 06:08:36;;;;;;;28.85;15.52;;;;;;;19.04;71.97;95658.94;5024388;28;20060;-83
2023/06/05 06:11:06;;;;;;;24.80;15.65;;;;;;;18.54;71.75;95572.53;5014157;28;20045;-85
2023/06/05 06:13:33;;;;;;;48.67;20.70;;;;;;;18.82;71.54;95616.88;5012625;28;20034;-82
2023/06/05 06:15:59;;;;;;;45.80;17.00;;;;;;;18.65;71.30;95578.44;5014713;28;20045;-82
2023/06/05 06:18:25;;;;;;;21.42;14.73;;;;;;;19.05;70.73;95612.16;5012363;28;20159;-83
2023/06/05 06:20:57;;;;;;;24.40;14.98;;;;;;;19.44;69.67;95654.22;5015870;28;20037;-83
2023/06/05 06:23:23;;;;;;;22.63;14.68;;;;;;;19.11;69.25;95586.69;5015100;28;20033;-83
2023/06/05 06:25:48;;;;;;;22.95;14.32;;;;;;;19.32;68.73;95618.28;5015585;28;20022;-84
2023/06/05 06:28:16;;;;;;;21.02;13.63;;;;;;;19.47;68.05;95628.59;5019087;28;20056;-83
2023/06/05 06:30:42;;;;;;;18.35;13.10;;;;;;;19.71;67.71;95650.41;5017797;28;20030;-81
2023/06/05 06:33:07;;;;;;;27.27;15.02;;;;;;;19.57;68.03;95642.50;5020406;28;20060;-83
2023/06/05 06:35:36;;;;;;;20.23;14.68;;;;;;;19.59;68.00;95628.75;5017414;28;20029;-82
2023/06/05 06:38:01;;;;;;;23.40;15.32;;;;;;;19.58;67.75;95606.44;5021523;28;20061;-82
2023/06/05 06:40:28;;;;;;;26.05;15.27;;;;;;;19.97;67.21;95636.88;5021884;28;20060;-82
2023/06/05 06:42:54;;;;;;;28.95;16.52;;;;;;;20.11;67.36;95644.75;5020930;28;20063;-80
2023/06/05 06:45:20;;;;;;;30.95;18.13;;;;;;;20.00;66.25;95620.88;5020380;28;20049;-82
2023/06/05 06:47:46;;;;;;;24.73;15.73;;;;;;;19.89;67.16;95640.41;5017297;28;20029;-81
2023/06/05 06:50:13;;;;;;;28.35;16.77;;;;;;;20.03;66.29;95624.81;5019932;28;20030;-82
2023/06/05 06:52:39;;;;;;;30.48;16.30;;;;;;;20.04;65.35;95605.66;5026572;28;20041;-82
2023/06/05 06:55:05;;;;;;;26.23;16.05;;;;;;;20.29;64.98;95636.28;5012684;28;20064;-81
2023/06/05 06:57:31;;;;;;;33.63;17.52;;;;;;;20.11;65.27;95628.59;5016409;28;20064;-83
2023/06/05 06:59:57;;;;;;;24.33;17.33;;;;;;;19.68;65.82;95575.72;5014409;28;20131;-83
2023/06/05 07:02:24;;;;;;;33.17;18.73;;;;;;;19.84;66.10;95592.09;5028518;28;21168;-84
2023/06/05 07:04:49;;;;;;;28.63;18.85;;;;;;;20.38;64.89;95644.34;5024316;28;20045;-82
2023/06/05 07:07:17;;;;;;;53.90;21.95;;;;;;;20.37;64.73;95624.69;5043422;28;20118;-81
2023/06/05 07:09:44;;;;;;;31.15;19.27;;;;;;;20.41;64.78;95603.31;5039858;28;20116;-83
2023/06/05 07:12:10;;;;;;;38.03;20.17;;;;;;;20.53;64.74;95630.31;5023507;28;20043;-82
2023/06/05 07:14:37;;;;;;;30.45;19.38;;;;;;;20.65;64.73;95641.22;5035629;28;21310;-82
2023/06/05 07:17:02;;;;;;;35.80;20.58;;;;;;;20.12;64.50;95563.66;5021399;28;20033;-81
2023/06/05 07:19:29;;;;;;;41.30;20.63;;;;;;;20.64;64.45;95639.63;5036414;28;20034;-82
2023/06/05 07:21:59;;;;;;;31.23;19.65;;;;;;;20.75;63.66;95637.34;5023872;28;20033;-83
2023/06/05 07:24:25;;;;;;;38.28;19.88;;;;;;;20.64;64.25;95623.47;5028841;28;20036;-82
2023/06/05 07:26:53;;;;;;;37.03;20.20;;;;;;;20.61;63.99;95613.31;5022924;28;20041;-82
2023/06/05 07:29:19;;;;;;;33.15;19.52;;;;;;;20.62;64.06;95635.66;5023370;28;20427;-82
2023/06/05 07:31:47;;;;;;;26.08;17.23;;;;;;;20.00;64.25;95553.56;5021479;28;20041;-82
2023/06/05 07:34:12;;;;;;;33.33;18.48;;;;;;;20.77;63.77;95645.88;5040970;28;20033;-81
2023/06/05 07:36:38;;;;;;;29.38;18.73;;;;;;;20.49;64.48;95605.16;5041306;28;20036;-82
2023/06/05 07:39:04;;;;;;;36.40;19.08;;;;;;;20.12;63.49;95544.81;5026093;28;20028;-81
2023/06/05 07:41:30;;;;;;;50.03;21.63;;;;;;;20.74;64.71;95641.16;5050109;28;20055;-82
2023/06/05 07:43:55;;;;;;;47.33;19.95;;;;;;;20.52;64.31;95639.53;5028349;28;20113;-83
2023/06/05 07:46:21;;;;;;;33.40;18.58;;;;;;;19.83;64.16;95567.13;5022424;28;20025;-80
2023/06/05 07:48:46;;;;;;;28.23;19.02;;;;;;;20.67;64.14;95657.06;5021372;28;20043;-80
2023/06/05 07:51:11;;;;;;;28.27;17.65;;;;;;;20.54;64.82;95644.59;5021815;28;20052;-79
2023/06/05 07:53:37;;;;;;;29.92;17.42;;;;;;;20.57;63.83;95628.56;5036407;28;20038;-79
2023/06/05 07:56:02;;;;;;;23.98;15.88;;;;;;;20.74;63.23;95660.03;5023411;28;20132;-81
2023/06/05 07:58:28;;;;;;;27.27;16.80;;;;;;;19.98;63.22;95531.59;5016999;28;20036;-79
2023/06/05 08:00:54;;;;;;;34.00;18.95;;;;;;;20.76;63.59;95636.22;5040125;28;20048;-80
2023/06/05 08:03:19;;;;;;;26.25;17.70;;;;;;;20.94;64.76;95636.91;5019886;28;20103;-78
2023/06/05 08:05:51;;;;;;;29.63;17.00;;;;;;;21.15;62.34;95648.47;5020979;28;20407;-80
2023/06/05 08:08:18;;;;;;;25.70;16.33;;;;;;;20.98;62.75;95621.66;5042970;28;20095;-79
2023/06/05 08:10:44;;;;;;;26.00;16.08;;;;;;;21.28;61.27;95652.09;5010866;28;20029;-79
2023/06/05 08:13:10;;;;;;;27.20;16.25;;;;;;;21.46;61.07;95661.59;5001195;28;20151;-79
2023/06/05 08:15:36;;;;;;;27.83;16.50;;;;;;;21.43;61.61;95643.38;5032495;28;20102;-79
2023/06/05 08:18:02;;;;;;;27.67;15.85;;;;;;;21.77;61.22;95661.94;5027759;28;20029;-79
2023/06/05 08:20:27;;;;;;;32.05;16.95;;;;;;;21.51;60.65;95612.84;5019161;28;20024;-79
2023/06/05 08:22:57;;;;;;;34.25;19.40;;;;;;;21.60;59.38;95629.72;5028996;28;20041;-79
2023/06/05 08:25:23;;;;;;;33.40;17.65;;;;;;;21.64;58.53;95624.44;5043493;28;20144;-79
2023/06/05 08:27:49;;;;;;;29.27;16.95;;;;;;;21.85;57.69;95652.19;5022426;28;20036;-79
2023/06/05 08:30:15;;;;;;;25.92;16.33;;;;;;;21.95;59.39;95667.97;5043268;28;20036;-79
2023/06/05 08:32:40;;;;;;;28.55;15.73;;;;;;;21.75;59.79;95623.69;5021495;28;20041;-79
2023/06/05 08:35:06;;;;;;;31.27;16.20;;;;;;;22.06;59.87;95669.13;5041932;28;20045;-79
2023/06/05 08:37:32;;;;;;;28.35;16.30;;;;;;;21.95;59.10;95639.06;5026597;28;20036;-79
2023/06/05 08:39:59;;;;;;;33.92;16.45;;;;;;;21.91;58.88;95645.44;5026044;28;20037;-80
2023/06/05 08:42:28;;;;;;;28.90;14.80;;;;;;;22.05;58.71;95653.28;5025868;28;20040;-82
2023/06/05 08:44:54;;;;;;;33.10;15.60;;;;;;;22.31;57.61;95678.09;5042437;28;20039;-82
2023/06/05 08:47:23;;;;;;;24.63;13.80;;;;;;;22.04;57.13;95622.78;5031329;28;20131;-83
2023/06/05 08:49:52;;;;;;;36.47;16.10;;;;;;;22.33;57.63;95655.03;5025442;28;20116;-82
2023/06/05 08:52:19;;;;;;;38.60;17.13;;;;;;;22.68;57.37;95676.97;5042524;28;20037;-81
2023/06/05 08:54:45;;;;;;;47.33;17.50;;;;;;;22.58;57.33;95644.97;5029020;28;20047;-79
2023/06/05 08:57:11;;;;;;;26.20;14.38;;;;;;;22.64;57.12;95640.94;5027844;28;20238;-82
2023/06/05 08:59:36;;;;;;;28.52;14.18;;;;;;;22.58;56.18;95599.03;5048570;28;20099;-81
2023/06/05 09:02:02;;;;;;;27.92;15.18;;;;;;;23.11;56.76;95662.13;5043941;28;20086;-80
2023/06/05 09:04:30;;;;;;;26.75;14.60;;;;;;;22.82;56.26;95633.41;5028028;28;20238;-81
2023/06/05 09:06:57;;;;;;;31.60;14.98;;;;;;;22.33;56.18;95573.16;5042495;28;20111;-80
2023/06/05 09:09:23;;;;;;;27.83;13.15;;;;;;;22.98;55.23;95668.66;5018364;28;20450;-81
2023/06/05 09:12:01;;;;;;;20.88;12.15;;;;;;;23.10;54.24;95663.25;5023552;28;20037;-80
2023/06/05 09:14:28;;;;;;;21.27;11.57;;;;;;;22.99;54.19;95619.63;5025610;28;20572;-82
2023/06/05 09:16:53;;;;;;;40.58;15.73;;;;;;;23.02;54.58;95632.47;5042959;28;20792;-82
2023/06/05 09:19:26;;;;;;;21.05;14.02;;;;;;;22.73;54.57;95584.06;5025846;28;20025;-84
2023/06/05 09:21:54;;;;;;;23.48;12.82;;;;;;;22.37;54.17;95522.72;5047408;28;20036;-83
2023/06/05 09:24:25;;;;;;;25.73;11.82;;;;;;;22.69;54.73;95604.78;5032677;28;20057;-81
2023/06/05 09:27:00;;;;;;;18.17;11.60;;;;;;;22.16;54.49;95513.97;5046901;28;20112;-84
2023/06/05 09:29:34;;;;;;;17.98;10.77;;;;;;;23.06;54.03;95625.25;5023292;28;20029;-82
2023/06/05 09:32:01;;;;;;;23.75;11.70;;;;;;;22.38;53.83;95543.22;5027718;28;20060;-84
2023/06/05 09:34:29;;;;;;;20.73;12.18;;;;;;;22.34;54.39;95588.25;5036958;28;20037;-84
2023/06/05 09:36:57;;;;;;;20.42;10.50;;;;;;;22.10;53.46;95523.41;5045954;28;20064;-84
2023/06/05 09:39:26;;;;;;;17.55;11.10;;;;;;;22.93;53.66;95639.13;5027903;28;20044;-84
2023/06/05 09:41:52;;;;;;;14.18;9.52;;;;;;;23.06;53.78;95660.41;5027864;28;20036;-83
2023/06/05 09:44:19;;;;;;;18.77;11.38;;;;;;;22.60;53.90;95580.56;5049340;28;20132;-82
2023/06/05 09:47:08;;;;;;;16.70;9.88;;;;;;;23.26;53.83;95666.81;5043058;28;20056;-86
2023/06/05 09:49:40;;;;;;;21.52;10.95;;;;;;;23.18;53.43;95672.34;5028207;28;21002;-84
2023/06/05 09:52:07;;;;;;;14.25;9.13;;;;;;;22.93;53.64;95621.00;5040281;28;20707;-84
2023/06/05 09:54:37;;;;;;;15.32;10.13;;;;;;;22.99;53.26;95611.50;5046720;28;20029;-84
2023/06/05 09:57:04;;;;;;;15.00;9.88;;;;;;;22.89;53.88;95611.97;5026436;28;20033;-85
2023/06/05 09:59:35;;;;;;;14.70;9.00;;;;;;;23.25;53.34;95653.63;5025865;28;20059;-87
2023/06/05 10:02:04;;;;;;;15.13;9.05;;;;;;;22.42;53.12;95510.91;5029136;28;20067;-86
2023/06/05 10:04:34;;;;;;;18.60;9.25;;;;;;;21.94;51.94;95448.47;5043039;28;20021;-84
2023/06/05 10:07:04;;;;;;;14.05;9.43;;;;;;;23.17;52.34;95651.84;5029254;28;20025;-87
2023/06/05 10:09:33;;;;;;;18.52;9.75;;;;;;;22.70;52.91;95571.22;5033018;28;20218;-85
2023/06/05 10:12:03;;;;;;;16.45;9.68;;;;;;;23.28;53.38;95652.91;5021038;28;20032;-84
2023/06/05 10:14:29;;;;;;;13.95;9.57;;;;;;;22.37;53.91;95489.50;5025097;28;20052;-87
2023/06/05 10:16:58;;;;;;;22.42;10.27;;;;;;;22.79;54.34;95558.38;5033812;28;20269;-89
2023/06/05 10:19:24;;;;;;;17.77;10.55;;;;;;;21.51;54.04;95361.88;5028396;28;20127;-86
2023/06/05 10:21:51;;;;;;;15.77;9.23;;;;;;;21.53;53.27;95373.91;5027148;28;20072;-88
2023/06/05 10:24:19;;;;;;;17.75;10.10;;;;;;;23.51;53.09;95632.34;5046822;28;20439;-84
2023/06/05 10:27:03;;;;;;;20.92;10.50;;;;;;;23.62;53.20;95636.16;5045521;28;20096;-84
2023/06/05 10:29:50;;;;;;;25.98;11.20;;;;;;;23.87;54.89;95636.03;5026915;28;20118;-84
2023/06/05 10:32:28;;;;;;;18.15;11.48;;;;;;;24.19;53.60;95637.63;5019581;28;20037;-84
2023/06/05 10:35:08;;;;;;;17.65;10.52;;;;;;;24.63;51.93;95622.09;5037513;28;20042;-83
2023/06/05 10:37:51;;;;;;;23.20;10.60;;;;;;;25.12;51.20;95635.22;5024572;28;20040;-84
2023/06/05 10:40:17;;;;;;;17.95;10.55;;;;;;;24.83;48.95;95606.66;5018228;28;20483;-83
2023/06/05 10:42:43;;;;;;;14.23;9.93;;;;;;;25.12;48.95;95608.88;5021767;28;20625;-83
2023/06/05 10:45:09;;;;;;;20.48;10.23;;;;;;;24.38;49.10;95515.00;5019145;28;20041;-84
2023/06/05 10:47:35;;;;;;;14.43;9.45;;;;;;;25.35;49.08;95622.53;5043041;28;20633;-84
2023/06/05 10:50:15;;;;;;;14.10;10.23;;;;;;;25.50;50.00;95626.31;5039549;28;20029;-84
2023/06/05 10:52:41;;;;;;;19.02;10.73;;;;;;;25.45;49.90;95626.59;5023748;28;20663;-83
2023/06/05 10:55:08;;;;;;;23.70;11.10;;;;;;;24.78;50.86;95536.41;5020997;28;20040;-83
2023/06/05 10:57:55;;;;;;;23.00;11.07;;;;;;;25.30;50.21;95615.47;5042335;28;20414;-84
2023/06/05 11:00:21;;;;;;;13.30;9.38;;;;;;;25.24;49.41;95589.75;5022525;28;20507;-83
2023/06/05 11:02:48;;;;;;;20.25;9.80;;;;;;;25.56;50.23;95619.44;5022437;28;20069;-85
2023/06/05 11:05:14;;;;;;;17.13;10.30;;;;;;;25.58;49.59;95614.44;5017011;28;20033;-83
2023/06/05 11:07:42;;;;;;;26.90;11.77;;;;;;;25.62;49.98;95610.69;5011617;28;20041;-83
2023/06/05 11:10:09;;;;;;;22.50;11.20;;;;;;;25.85;50.18;95612.69;5006144;28;20038;-83
2023/06/05 11:12:34;;;;;;;18.58;10.43;;;;;;;26.03;49.27;95613.75;5007386;28;20514;-82
2023/06/05 11:15:00;;;;;;;16.52;9.65;;;;;;;26.29;48.36;95615.81;5017802;28;20042;-82
2023/06/05 11:17:46;;;;;;;30.70;11.63;;;;;;;26.64;48.62;95602.75;5017854;28;20440;-82